Time;durP1;ratioP1;P1;durP2;ratioP2;P2;SDS_P1;SDS_P2;PMS_P1;PMS_P2;Temp;Humidity;BMP_temperature;BMP_pressure;BME280_temperature;BME280_humidity;BME280_pressure;Samples;Min_cycle;Max_cycle;Signal;HPM_P1;HPM_P2
2021/06/08 00:01:01;;;;;;;6.90;5.90;;;20.40;75.30;;;;;;5096120;28;20420;-81
2021/06/08 00:03:29;;;;;;;7.67;5.70;;;20.50;75.80;;;;;;5097216;28;20438;-82
2021/06/08 00:05:56;;;;;;;6.37;5.47;;;20.60;76.10;;;;;;5097353;28;20174;-82
2021/06/08 00:08:21;;;;;;;5.97;5.27;;;20.60;76.00;;;;;;5095878;28;20464;-81
2021/06/08 00:10:47;;;;;;;5.87;5.27;;;20.50;76.00;;;;;;5096364;28;20429;-81
2021/06/08 00:13:12;;;;;;;6.63;5.90;;;20.30;76.80;;;;;;5078612;28;20713;-81
2021/06/08 00:15:38;;;;;;;5.33;4.87;;;20.10;77.40;;;;;;5097090;28;20168;-81
2021/06/08 00:18:04;;;;;;;5.90;5.30;;;20.10;78.10;;;;;;5096971;28;20171;-81
2021/06/08 00:20:30;;;;;;;6.93;5.70;;;20.00;78.90;;;;;;5097174;28;20181;-82
2021/06/08 00:22:55;;;;;;;5.90;5.27;;;20.00;79.10;;;;;;5080493;28;20270;-81
2021/06/08 00:25:21;;;;;;;6.97;6.23;;;20.00;79.70;;;;;;5079994;28;20940;-80
2021/06/08 00:27:46;;;;;;;5.60;4.80;;;20.00;80.20;;;;;;5099227;28;20199;-80
2021/06/08 00:30:12;;;;;;;9.03;6.47;;;20.20;80.60;;;;;;5097452;28;20719;-80
2021/06/08 00:32:39;;;;;;;6.80;6.10;;;20.30;80.30;;;;;;5096766;28;20203;-81
2021/06/08 00:35:06;;;;;;;6.87;5.90;;;20.40;80.40;;;;;;5097812;28;20919;-80
2021/06/08 00:37:31;;;;;;;7.63;5.60;;;20.50;80.50;;;;;;5099084;28;20409;-80
2021/06/08 00:39:57;;;;;;;6.20;5.60;;;20.50;80.50;;;;;;5097903;28;20419;-79
2021/06/08 00:42:30;;;;;;;7.27;5.70;;;20.50;80.80;;;;;;5097308;28;20312;-80
2021/06/08 00:44:55;;;;;;;6.47;5.83;;;20.60;81.00;;;;;;5097280;28;20185;-81
2021/06/08 00:47:21;;;;;;;6.87;5.60;;;20.60;80.90;;;;;;5097615;28;20466;-80
2021/06/08 00:49:47;;;;;;;7.17;5.10;;;20.50;80.70;;;;;;5097677;28;20176;-81
2021/06/08 00:52:12;;;;;;;7.73;5.87;;;20.60;81.50;;;;;;5097396;28;20219;-80
2021/06/08 00:54:38;;;;;;;8.53;6.03;;;20.60;81.60;;;;;;5097933;28;20767;-81
2021/06/08 00:57:04;;;;;;;6.40;5.60;;;20.60;81.90;;;;;;5099357;28;20515;-80
2021/06/08 00:59:30;;;;;;;7.20;6.20;;;20.60;81.90;;;;;;5095594;28;20423;-80
2021/06/08 01:01:55;;;;;;;8.47;7.20;;;20.60;82.10;;;;;;5094066;28;20273;-79
2021/06/08 01:04:21;;;;;;;6.37;5.77;;;20.60;81.80;;;;;;5095437;28;20175;-79
2021/06/08 01:06:48;;;;;;;7.00;6.30;;;20.50;82.50;;;;;;5096212;28;20196;-79
2021/06/08 01:09:13;;;;;;;8.03;6.07;;;20.50;83.10;;;;;;5094538;28;20177;-79
2021/06/08 01:11:39;;;;;;;7.00;6.30;;;20.50;83.30;;;;;;5094018;28;20447;-79
2021/06/08 01:14:05;;;;;;;6.30;5.63;;;20.60;83.70;;;;;;5099610;28;20168;-79
2021/06/08 01:16:32;;;;;;;7.10;5.90;;;20.50;83.00;;;;;;5099145;28;20167;-79
2021/06/08 01:18:58;;;;;;;6.53;5.93;;;20.50;82.90;;;;;;5100994;28;20768;-80
2021/06/08 01:21:24;;;;;;;7.00;6.30;;;20.40;83.50;;;;;;5100393;28;20413;-80
2021/06/08 01:23:49;;;;;;;7.87;6.07;;;20.40;83.90;;;;;;5104768;28;20418;-80
2021/06/08 01:26:16;;;;;;;7.17;6.30;;;20.40;84.10;;;;;;5103219;28;20453;-80
2021/06/08 01:28:42;;;;;;;6.67;6.00;;;20.40;84.60;;;;;;5084095;28;20167;-79
2021/06/08 01:31:11;;;;;;;7.77;6.43;;;20.40;85.10;;;;;;5100558;28;20410;-80
2021/06/08 01:33:41;;;;;;;10.67;6.10;;;20.40;84.60;;;;;;5102668;28;20464;-80
2021/06/08 01:36:20;;;;;;;8.30;7.07;;;20.40;85.40;;;;;;5101987;28;20932;-80
2021/06/08 01:38:49;;;;;;;9.20;6.80;;;20.40;86.10;;;;;;5102928;28;20408;-80
2021/06/08 01:41:17;;;;;;;8.07;6.53;;;20.40;86.40;;;;;;5101234;28;20740;-80
2021/06/08 01:43:44;;;;;;;8.20;7.10;;;20.50;86.90;;;;;;5102348;28;20501;-81
2021/06/08 01:46:10;;;;;;;6.70;5.80;;;20.40;87.50;;;;;;5101968;28;20449;-80
2021/06/08 01:48:37;;;;;;;7.10;5.77;;;20.20;88.00;;;;;;5101306;28;20768;-80
2021/06/08 01:51:28;;;;;;;6.97;6.20;;;20.30;89.00;;;;;;5100949;28;20438;-80
2021/06/08 01:54:04;;;;;;;8.90;6.73;;;20.20;89.60;;;;;;5099037;28;20411;-80
2021/06/08 01:56:31;;;;;;;6.57;5.87;;;20.20;89.90;;;;;;5098530;28;20417;-79
2021/06/08 01:59:12;;;;;;;8.10;6.10;;;20.30;90.20;;;;;;5097477;28;20487;-81
2021/06/08 02:01:56;;;;;;;9.07;6.87;;;20.30;90.10;;;;;;5098294;28;20411;-80
2021/06/08 02:04:26;;;;;;;7.97;6.53;;;20.30;90.50;;;;;;5112039;28;20458;-81
2021/06/08 02:07:11;;;;;;;7.73;6.60;;;20.30;90.70;;;;;;5098930;28;20514;-79
2021/06/08 02:10:10;;;;;;;8.53;7.63;;;20.30;91.10;;;;;;5100424;28;20401;-80
2021/06/08 02:12:36;;;;;;;7.00;6.13;;;20.40;91.00;;;;;;5099119;28;20450;-81
2021/06/08 02:15:07;;;;;;;7.77;7.07;;;20.40;91.20;;;;;;5080512;28;20414;-79
2021/06/08 02:17:50;;;;;;;7.03;6.33;;;20.40;91.40;;;;;;5097072;28;20413;-80
2021/06/08 02:20:20;;;;;;;10.17;7.00;;;20.20;91.70;;;;;;5099567;28;20408;-80
2021/06/08 02:22:50;;;;;;;8.10;6.20;;;20.00;92.50;;;;;;5099688;28;20428;-81
2021/06/08 02:25:18;;;;;;;8.87;7.20;;;19.80;93.00;;;;;;5098541;28;20409;-81
2021/06/08 02:27:44;;;;;;;7.43;6.73;;;19.80;93.60;;;;;;5100709;28;20832;-81
2021/06/08 02:30:12;;;;;;;7.00;6.30;;;19.90;94.00;;;;;;5100192;28;20417;-80
2021/06/08 02:32:39;;;;;;;9.60;7.47;;;20.00;93.90;;;;;;5099801;28;20960;-80
2021/06/08 02:35:06;;;;;;;7.90;7.10;;;19.80;94.20;;;;;;5101721;28;20410;-79
2021/06/08 02:37:34;;;;;;;8.37;6.90;;;19.70;95.10;;;;;;5081329;28;20460;-81
2021/06/08 02:40:01;;;;;;;7.60;6.80;;;19.70;95.50;;;;;;5081732;28;20517;-80
2021/06/08 02:42:27;;;;;;;8.50;7.60;;;19.70;96.10;;;;;;5100160;28;20437;-81
2021/06/08 02:44:53;;;;;;;10.03;7.60;;;19.80;95.90;;;;;;5100891;28;20773;-80
2021/06/08 02:47:20;;;;;;;9.30;8.20;;;19.80;96.20;;;;;;5100058;28;20229;-79
2021/06/08 02:49:47;;;;;;;8.57;7.20;;;19.70;96.70;;;;;;5098023;28;20443;-80
2021/06/08 02:52:16;;;;;;;8.57;7.23;;;19.40;97.50;;;;;;5098795;28;20440;-79
2021/06/08 02:54:42;;;;;;;8.47;7.57;;;19.20;98.40;;;;;;5098556;28;20413;-80
2021/06/08 02:57:09;;;;;;;8.10;7.30;;;19.10;99.20;;;;;;5099193;28;20419;-80
2021/06/08 02:59:36;;;;;;;10.57;6.67;;;19.10;99.80;;;;;;5099078;28;20419;-80
2021/06/08 03:02:04;;;;;;;9.70;7.90;;;19.10;99.90;;;;;;5081818;28;20532;-80
2021/06/08 03:04:42;;;;;;;9.90;7.40;;;19.00;99.90;;;;;;5101010;28;20486;-79
2021/06/08 03:07:11;;;;;;;9.10;6.77;;;19.00;99.90;;;;;;5097797;28;20469;-80
2021/06/08 03:09:41;;;;;;;10.53;6.67;;;19.10;99.90;;;;;;5099293;28;20419;-81
2021/06/08 03:12:12;;;;;;;8.37;6.60;;;19.20;99.90;;;;;;5098735;28;20449;-79
2021/06/08 03:14:42;;;;;;;9.20;7.30;;;19.40;99.90;;;;;;5097128;28;20414;-80
2021/06/08 03:17:09;;;;;;;9.83;7.87;;;19.50;99.90;;;;;;5097833;28;20409;-80
2021/06/08 03:19:37;;;;;;;7.43;6.70;;;19.60;99.90;;;;;;5099284;28;20777;-79
2021/06/08 03:22:09;;;;;;;8.73;6.50;;;19.70;99.90;;;;;;5098543;28;20441;-80
2021/06/08 03:24:40;;;;;;;9.10;7.67;;;19.80;99.90;;;;;;5098367;28;20892;-79
2021/06/08 03:27:07;;;;;;;8.40;6.40;;;19.90;99.50;;;;;;5097545;28;20453;-80
2021/06/08 03:29:35;;;;;;;10.60;7.73;;;19.90;99.50;;;;;;5098005;28;20406;-80
2021/06/08 03:32:01;;;;;;;7.70;6.87;;;19.90;99.30;;;;;;5079397;28;20492;-79
2021/06/08 03:34:29;;;;;;;10.57;7.97;;;19.70;99.50;;;;;;5098546;28;20401;-80
2021/06/08 03:36:57;;;;;;;8.23;6.80;;;19.40;99.90;;;;;;5096416;28;20482;-79
2021/06/08 03:39:24;;;;;;;10.00;7.37;;;19.40;99.90;;;;;;5079900;28;20488;-80
2021/06/08 03:41:51;;;;;;;8.57;7.00;;;19.50;99.90;;;;;;5096634;28;20471;-80
2021/06/08 03:44:18;;;;;;;9.03;7.70;;;19.50;99.90;;;;;;5097846;28;20889;-81
2021/06/08 03:46:48;;;;;;;6.53;5.93;;;19.60;99.90;;;;;;5096879;28;20516;-81
2021/06/08 03:49:14;;;;;;;8.00;7.20;;;19.50;99.90;;;;;;5096156;28;20418;-81
2021/06/08 03:51:40;;;;;;;8.33;6.83;;;19.50;99.90;;;;;;5096840;28;20444;-81
2021/06/08 03:54:06;;;;;;;8.33;7.47;;;19.70;99.90;;;;;;5097609;28;20409;-81
2021/06/08 03:56:33;;;;;;;9.10;6.93;;;19.50;99.90;;;;;;5064191;28;20993;-82
2021/06/08 03:58:59;;;;;;;7.77;6.70;;;19.20;99.90;;;;;;5098457;28;20225;-82
2021/06/08 04:01:27;;;;;;;8.00;6.77;;;19.10;99.90;;;;;;5097049;28;20413;-82
2021/06/08 04:03:53;;;;;;;8.83;7.20;;;19.00;99.90;;;;;;5097938;28;20409;-82
2021/06/08 04:06:19;;;;;;;9.37;8.13;;;19.10;99.90;;;;;;5098489;28;20458;-81
2021/06/08 04:08:45;;;;;;;8.63;7.67;;;19.00;99.90;;;;;;5080214;28;20417;-81
2021/06/08 04:11:11;;;;;;;11.37;8.17;;;19.00;99.90;;;;;;5096932;28;20490;-84
2021/06/08 04:13:41;;;;;;;12.13;9.10;;;18.90;99.90;;;;;;5098250;28;20443;-84
2021/06/08 04:16:08;;;;;;;13.20;8.77;;;18.90;99.90;;;;;;5098667;28;20421;-83
2021/06/08 04:18:35;;;;;;;10.57;8.47;;;18.90;99.90;;;;;;5097329;28;20466;-82
2021/06/08 04:21:01;;;;;;;11.20;7.67;;;18.90;99.90;;;;;;5097021;28;20413;-83
2021/06/08 04:23:30;;;;;;;9.63;8.00;;;18.90;99.90;;;;;;5094716;28;20432;-82
2021/06/08 04:25:57;;;;;;;14.77;8.40;;;19.00;99.90;;;;;;5066945;28;20449;-82
2021/06/08 04:28:25;;;;;;;9.90;7.60;;;19.10;99.90;;;;;;5073141;28;20423;-82
2021/06/08 04:30:53;;;;;;;9.80;8.77;;;19.10;99.90;;;;;;5056041;28;20425;-81
2021/06/08 04:33:21;;;;;;;9.20;7.90;;;19.30;99.90;;;;;;5054783;28;20439;-80
2021/06/08 04:35:48;;;;;;;9.03;7.60;;;19.20;99.90;;;;;;5037436;28;20427;-80
2021/06/08 04:38:15;;;;;;;10.57;8.50;;;19.30;99.90;;;;;;5054244;28;20415;-81
2021/06/08 04:40:46;;;;;;;10.27;7.53;;;19.30;99.90;;;;;;5056848;28;20421;-81
2021/06/08 04:43:12;;;;;;;12.47;8.90;;;19.40;99.90;;;;;;5074805;28;20442;-81
2021/06/08 04:45:38;;;;;;;13.23;8.73;;;19.50;99.90;;;;;;5075370;28;20472;-81
2021/06/08 04:48:04;;;;;;;11.43;8.97;;;19.40;99.90;;;;;;5075853;28;20203;-81
2021/06/08 04:50:29;;;;;;;10.93;8.80;;;19.30;99.90;;;;;;5071697;28;20588;-79
2021/06/08 04:52:58;;;;;;;15.17;8.77;;;19.30;99.90;;;;;;5058417;28;20476;-80
2021/06/08 04:55:25;;;;;;;13.03;10.27;;;19.30;99.90;;;;;;5070102;28;20180;-78
2021/06/08 04:57:53;;;;;;;10.90;8.50;;;19.50;99.90;;;;;;5072658;28;20429;-78
2021/06/08 05:00:25;;;;;;;11.17;8.60;;;19.60;99.90;;;;;;5056784;28;20422;-79
2021/06/08 05:02:56;;;;;;;11.13;9.10;;;19.70;99.90;;;;;;5067015;28;20445;-78
2021/06/08 05:05:27;;;;;;;9.57;8.20;;;19.80;99.90;;;;;;5079908;28;20419;-79
2021/06/08 05:08:14;;;;;;;13.53;9.00;;;20.00;99.90;;;;;;5067156;28;20464;-80
2021/06/08 05:10:51;;;;;;;8.97;7.53;;;20.30;99.90;;;;;;5058357;28;20910;-80
2021/06/08 05:13:18;;;;;;;13.30;8.23;;;20.80;99.90;;;;;;5058258;28;20432;-81
2021/06/08 05:15:45;;;;;;;13.00;8.73;;;21.00;99.90;;;;;;5058830;28;20407;-80
2021/06/08 05:18:15;;;;;;;14.00;7.70;;;21.00;99.90;;;;;;5058440;28;20492;-80
2021/06/08 05:20:44;;;;;;;13.30;10.80;;;21.20;99.90;;;;;;5059923;28;20421;-80
2021/06/08 05:23:09;;;;;;;9.77;7.93;;;21.30;99.90;;;;;;5059217;28;20437;-80
2021/06/08 05:25:37;;;;;;;11.50;8.13;;;21.60;99.90;;;;;;5058586;28;20923;-80
2021/06/08 05:28:05;;;;;;;11.33;8.93;;;21.60;99.90;;;;;;5056524;28;20476;-80
2021/06/08 05:30:31;;;;;;;11.90;8.77;;;21.70;99.90;;;;;;5057372;28;20428;-79
2021/06/08 05:32:56;;;;;;;9.93;8.00;;;21.50;99.90;;;;;;5061014;28;20513;-79
2021/06/08 05:35:28;;;;;;;11.00;7.23;;;21.10;99.90;;;;;;5058428;28;20521;-80
2021/06/08 05:38:01;;;;;;;10.07;7.97;;;21.40;99.90;;;;;;5077949;28;20188;-80
2021/06/08 05:40:27;;;;;;;11.53;8.07;;;21.10;99.90;;;;;;5073516;28;20432;-79
2021/06/08 05:42:52;;;;;;;9.90;8.00;;;21.50;99.90;;;;;;5055670;28;20454;-80
2021/06/08 05:45:18;;;;;;;11.17;8.23;;;21.60;99.90;;;;;;5077078;28;20837;-79
2021/06/08 05:47:43;;;;;;;9.27;6.90;;;22.20;99.90;;;;;;5079266;28;20311;-80
2021/06/08 05:50:10;;;;;;;10.67;7.30;;;22.70;99.90;;;;;;5080980;28;20220;-81
2021/06/08 05:52:36;;;;;;;9.03;7.97;;;22.20;99.90;;;;;;5051334;28;20203;-81
2021/06/08 05:55:05;;;;;;;8.17;7.27;;;22.10;99.90;;;;;;5080985;28;20547;-82
2021/06/08 05:57:30;;;;;;;9.90;8.00;;;22.30;99.90;;;;;;5086559;28;20758;-81
2021/06/08 05:59:57;;;;;;;17.20;7.80;;;21.90;99.90;;;;;;5058064;28;20522;-81
2021/06/08 06:02:24;;;;;;;9.23;7.90;;;21.60;99.90;;;;;;5050279;28;20203;-80
2021/06/08 06:04:50;;;;;;;8.10;7.30;;;21.40;99.90;;;;;;5068631;28;20434;-82
2021/06/08 06:07:17;;;;;;;7.73;6.63;;;21.20;99.90;;;;;;5068315;28;20470;-81
2021/06/08 06:09:42;;;;;;;10.33;7.07;;;21.30;99.90;;;;;;5063792;28;20431;-82
2021/06/08 06:12:12;;;;;;;14.90;7.60;;;21.40;99.90;;;;;;5080796;28;20472;-82
2021/06/08 06:14:39;;;;;;;7.90;6.80;;;21.30;99.90;;;;;;5077011;28;20172;-82
2021/06/08 06:17:07;;;;;;;8.30;7.40;;;21.40;99.90;;;;;;5091009;28;20418;-81
2021/06/08 06:19:33;;;;;;;8.13;7.13;;;21.40;99.90;;;;;;5084450;28;20433;-81
2021/06/08 06:21:59;;;;;;;10.83;6.57;;;21.30;99.90;;;;;;5080528;28;20454;-81
2021/06/08 06:24:31;;;;;;;7.63;6.83;;;21.90;99.90;;;;;;5081200;28;20197;-80
2021/06/08 06:27:00;;;;;;;9.27;7.23;;;21.90;99.90;;;;;;5074157;28;20261;-82
2021/06/08 06:29:26;;;;;;;10.60;7.80;;;22.40;99.90;;;;;;5062443;28;20433;-83
2021/06/08 06:31:56;;;;;;;11.30;7.10;;;22.50;99.90;;;;;;5038999;28;20453;-83
2021/06/08 06:34:22;;;;;;;10.27;7.37;;;22.40;99.90;;;;;;5037074;28;20180;-83
2021/06/08 06:36:49;;;;;;;8.03;6.60;;;22.90;99.90;;;;;;5059879;28;20446;-81
2021/06/08 06:39:24;;;;;;;10.20;6.70;;;23.10;99.90;;;;;;5027017;28;20445;-82
2021/06/08 06:41:52;;;;;;;8.90;6.67;;;22.50;99.90;;;;;;5068329;28;20457;-82
2021/06/08 06:44:21;;;;;;;8.73;7.13;;;22.30;99.90;;;;;;5079592;28;20905;-80
2021/06/08 06:46:49;;;;;;;8.43;7.53;;;22.30;99.90;;;;;;5061261;28;20455;-81
2021/06/08 06:49:16;;;;;;;7.87;7.00;;;22.60;99.90;;;;;;5062750;28;20429;-80
2021/06/08 06:51:44;;;;;;;8.37;7.20;;;22.90;99.90;;;;;;5060335;28;20454;-80
2021/06/08 06:54:09;;;;;;;12.83;8.23;;;22.70;99.90;;;;;;5064982;28;20992;-79
2021/06/08 06:56:35;;;;;;;8.70;6.17;;;22.70;99.90;;;;;;5060716;28;20415;-80
2021/06/08 06:59:03;;;;;;;8.80;6.40;;;23.10;99.90;;;;;;5078016;28;20179;-80
2021/06/08 07:01:28;;;;;;;7.67;6.60;;;23.40;99.90;;;;;;5078519;28;20229;-79
2021/06/08 07:03:57;;;;;;;10.07;6.70;;;23.50;99.90;;;;;;5061969;28;20435;-80
2021/06/08 07:06:24;;;;;;;10.07;7.73;;;23.50;99.90;;;;;;5061386;28;20207;-79
2021/06/08 07:08:52;;;;;;;9.03;6.57;;;23.20;99.90;;;;;;5076874;28;20415;-80
2021/06/08 07:11:18;;;;;;;9.20;7.20;;;23.40;99.90;;;;;;5060379;28;20430;-80
2021/06/08 07:13:44;;;;;;;10.00;7.63;;;23.50;99.90;;;;;;5080905;28;20922;-80
2021/06/08 07:16:10;;;;;;;11.97;6.87;;;23.80;99.90;;;;;;5078765;28;20449;-80
2021/06/08 07:18:37;;;;;;;9.23;7.03;;;24.10;99.90;;;;;;5076028;28;20438;-79
2021/06/08 07:21:06;;;;;;;7.50;6.77;;;23.90;99.90;;;;;;5060034;28;20783;-79
2021/06/08 07:23:32;;;;;;;7.57;6.20;;;24.40;99.90;;;;;;5076576;28;20988;-80
2021/06/08 07:25:58;;;;;;;11.47;8.73;;;24.70;99.80;;;;;;5078141;28;20402;-80
2021/06/08 07:28:25;;;;;;;16.23;6.77;;;24.90;99.10;;;;;;5077197;28;20420;-80
2021/06/08 07:30:51;;;;;;;10.50;8.77;;;24.70;98.50;;;;;;5076316;28;20781;-79
2021/06/08 07:33:40;;;;;;;8.50;7.70;;;24.20;98.30;;;;;;5078179;28;20929;-79
2021/06/08 07:36:20;;;;;;;8.67;6.77;;;24.50;99.30;;;;;;5076145;28;20409;-80
2021/06/08 07:39:21;;;;;;;8.93;6.60;;;24.70;98.80;;;;;;5076455;28;20406;-80
2021/06/08 07:42:14;;;;;;;9.60;7.10;;;24.80;95.90;;;;;;5078487;28;20446;-80
2021/06/08 07:45:04;;;;;;;6.70;6.10;;;24.40;95.90;;;;;;5079427;28;20407;-79
2021/06/08 07:47:32;;;;;;;6.80;6.03;;;24.70;97.00;;;;;;5079616;28;20675;-79
2021/06/08 07:50:00;;;;;;;11.03;7.30;;;24.80;95.60;;;;;;5079839;28;20475;-80
2021/06/08 07:52:27;;;;;;;8.27;6.67;;;24.60;95.70;;;;;;5080875;28;20516;-80
2021/06/08 07:54:53;;;;;;;7.43;6.10;;;24.10;94.30;;;;;;5079831;28;20819;-80
2021/06/08 07:57:20;;;;;;;10.30;7.10;;;24.20;95.60;;;;;;5077093;28;20425;-80
2021/06/08 07:59:46;;;;;;;7.20;5.90;;;24.60;95.60;;;;;;5082808;28;20410;-80
2021/06/08 08:02:19;;;;;;;6.77;6.17;;;24.60;91.80;;;;;;5079429;28;20437;-80
2021/06/08 08:04:52;;;;;;;5.87;5.37;;;24.90;92.30;;;;;;5078163;28;20671;-80
2021/06/08 08:07:23;;;;;;;6.30;5.70;;;24.90;91.40;;;;;;5066012;28;20590;-80
2021/06/08 08:09:50;;;;;;;4.70;4.30;;;25.10;90.80;;;;;;5079671;28;20470;-80
2021/06/08 08:12:16;;;;;;;6.57;5.80;;;24.70;82.60;;;;;;5078791;28;20484;-80
2021/06/08 08:14:43;;;;;;;6.30;5.70;;;24.50;83.80;;;;;;5077200;28;20572;-80
2021/06/08 08:17:13;;;;;;;6.90;5.50;;;24.70;85.90;;;;;;5075725;28;20445;-79
2021/06/08 08:19:40;;;;;;;7.67;6.30;;;24.10;81.10;;;;;;5076985;28;20413;-80
2021/06/08 08:22:12;;;;;;;5.40;4.90;;;24.20;80.60;;;;;;5076203;28;20469;-80
2021/06/08 08:24:38;;;;;;;5.87;5.30;;;24.20;79.30;;;;;;5064178;28;20425;-81
2021/06/08 08:27:04;;;;;;;8.00;4.77;;;24.20;83.50;;;;;;5078779;28;20462;-81
2021/06/08 08:29:30;;;;;;;5.40;4.90;;;24.00;79.30;;;;;;5079034;28;20167;-81
2021/06/08 08:31:56;;;;;;;7.20;5.00;;;24.00;79.80;;;;;;5078995;28;20470;-80
2021/06/08 08:34:22;;;;;;;5.73;5.23;;;24.10;81.10;;;;;;5078722;28;20448;-81
2021/06/08 08:36:48;;;;;;;8.33;6.17;;;24.00;81.10;;;;;;5078393;28;20239;-81
2021/06/08 08:39:13;;;;;;;5.80;5.00;;;23.90;81.70;;;;;;5077025;28;20182;-80
2021/06/08 08:41:40;;;;;;;6.17;5.57;;;24.10;82.00;;;;;;5075726;28;20541;-80
2021/06/08 08:44:07;;;;;;;10.90;5.87;;;24.30;78.90;;;;;;5076757;28;20255;-79
2021/06/08 08:46:34;;;;;;;5.73;5.23;;;24.40;80.60;;;;;;5077420;28;20458;-80
2021/06/08 08:49:00;;;;;;;6.47;4.80;;;24.30;77.40;;;;;;5075453;28;20916;-80
2021/06/08 08:51:28;;;;;;;9.20;5.20;;;24.30;76.30;;;;;;5077094;28;20410;-80
2021/06/08 08:53:55;;;;;;;8.50;5.30;;;24.40;78.50;;;;;;5075348;28;20412;-80
2021/06/08 08:56:30;;;;;;;10.60;5.30;;;24.60;78.80;;;;;;5075330;28;20414;-80
2021/06/08 08:59:01;;;;;;;6.50;5.20;;;24.60;77.10;;;;;;5075489;28;20456;-80
2021/06/08 09:01:26;;;;;;;6.43;5.27;;;24.70;77.80;;;;;;5075835;28;20415;-79
2021/06/08 09:03:52;;;;;;;7.60;5.00;;;24.80;77.00;;;;;;5080840;28;20449;-80
2021/06/08 09:06:19;;;;;;;9.23;5.10;;;24.70;78.50;;;;;;5081273;28;20183;-81
2021/06/08 09:08:44;;;;;;;9.50;6.43;;;24.70;78.60;;;;;;5081244;28;20417;-79
2021/06/08 09:11:11;;;;;;;7.00;6.30;;;24.80;78.90;;;;;;5076845;28;20422;-79
2021/06/08 09:13:38;;;;;;;7.00;6.30;;;24.90;78.70;;;;;;5077968;28;20678;-80
2021/06/08 09:16:06;;;;;;;5.67;4.87;;;24.80;79.60;;;;;;5061425;28;20418;-80
2021/06/08 09:18:32;;;;;;;9.43;5.67;;;24.80;77.20;;;;;;5044872;28;20410;-80
2021/06/08 09:21:20;;;;;;;8.10;5.57;;;25.00;78.80;;;;;;5044461;28;20499;-80
2021/06/08 09:23:46;;;;;;;5.23;4.73;;;25.10;78.80;;;;;;5077623;28;20181;-79
2021/06/08 09:26:15;;;;;;;6.67;6.07;;;24.80;77.60;;;;;;5076038;28;20421;-80
2021/06/08 09:28:42;;;;;;;6.60;6.00;;;24.80;79.60;;;;;;5076848;28;20406;-83
2021/06/08 09:31:24;;;;;;;7.90;6.53;;;24.50;80.80;;;;;;5086126;28;20424;-78
2021/06/08 09:33:54;;;;;;;6.17;5.57;;;24.40;83.20;;;;;;5075474;28;20417;-79
2021/06/08 09:36:22;;;;;;;7.37;6.67;;;24.50;85.70;;;;;;5077662;28;20936;-79
2021/06/08 09:39:02;;;;;;;14.60;7.23;;;24.60;83.80;;;;;;5077306;28;20417;-79
2021/06/08 09:41:32;;;;;;;7.00;6.40;;;24.60;85.20;;;;;;5076860;28;20417;-79
2021/06/08 09:44:04;;;;;;;6.97;6.27;;;24.90;85.40;;;;;;5077568;28;20406;-80
2021/06/08 09:46:48;;;;;;;7.70;5.93;;;25.10;84.20;;;;;;5078112;28;20471;-80
2021/06/08 09:49:16;;;;;;;7.00;6.30;;;25.30;83.30;;;;;;5074650;28;20418;-79
2021/06/08 09:51:49;;;;;;;6.57;5.87;;;25.50;80.20;;;;;;5077641;28;20454;-79
2021/06/08 09:54:23;;;;;;;7.10;6.40;;;25.70;79.30;;;;;;5077990;28;20413;-80
2021/06/08 09:56:49;;;;;;;7.63;6.10;;;25.70;79.00;;;;;;5077413;28;20438;-79
2021/06/08 09:59:15;;;;;;;6.37;5.77;;;25.60;76.60;;;;;;5077584;28;20440;-78
2021/06/08 10:01:40;;;;;;;10.80;5.63;;;25.50;76.70;;;;;;5076678;28;20254;-79
2021/06/08 10:04:06;;;;;;;7.27;6.43;;;25.10;76.50;;;;;;5075163;28;20172;-78
2021/06/08 10:06:39;;;;;;;5.80;5.20;;;25.00;77.20;;;;;;5076053;28;20207;-78
2021/06/08 10:09:09;;;;;;;6.17;5.57;;;25.00;76.80;;;;;;5076415;28;20168;-79
2021/06/08 10:11:37;;;;;;;5.20;4.70;;;25.10;76.70;;;;;;5076365;28;20430;-79
2021/06/08 10:14:13;;;;;;;6.17;5.57;;;25.10;75.40;;;;;;5076838;28;20509;-79
2021/06/08 10:16:40;;;;;;;6.80;6.10;;;24.90;75.90;;;;;;5077348;28;20413;-79
2021/06/08 10:19:06;;;;;;;9.37;5.33;;;24.90;77.30;;;;;;5075159;28;20421;-79
2021/06/08 10:21:38;;;;;;;8.97;5.40;;;25.10;77.50;;;;;;5076788;28;20410;-79
2021/06/08 10:24:12;;;;;;;6.20;5.60;;;25.20;76.00;;;;;;5076630;28;20414;-79
2021/06/08 10:26:40;;;;;;;7.13;5.93;;;25.30;75.40;;;;;;5075845;28;20454;-80
2021/06/08 10:29:10;;;;;;;5.73;5.23;;;25.50;76.10;;;;;;5058728;28;20430;-79
2021/06/08 10:31:40;;;;;;;6.27;5.77;;;25.80;75.70;;;;;;5075601;28;20411;-79
2021/06/08 10:34:07;;;;;;;6.23;5.63;;;25.80;76.00;;;;;;5076027;28;20417;-79
2021/06/08 10:36:34;;;;;;;9.03;5.53;;;26.00;75.90;;;;;;5076315;28;20403;-79
2021/06/08 10:39:00;;;;;;;6.73;6.10;;;25.90;76.00;;;;;;5077162;28;20412;-79
2021/06/08 10:41:27;;;;;;;10.30;6.80;;;25.50;76.80;;;;;;5075527;28;20403;-78
2021/06/08 10:43:53;;;;;;;6.80;6.10;;;25.00;79.00;;;;;;5074217;28;20917;-79
2021/06/08 10:46:34;;;;;;;7.17;6.47;;;25.00;81.60;;;;;;5075116;28;20407;-79
2021/06/08 10:49:01;;;;;;;9.07;7.13;;;25.10;81.10;;;;;;5076100;28;20164;-78
2021/06/08 10:51:29;;;;;;;6.03;5.53;;;25.40;81.00;;;;;;5073373;28;20422;-79
2021/06/08 10:53:56;;;;;;;8.90;5.77;;;25.50;79.10;;;;;;5074032;28;20415;-79
2021/06/08 10:56:30;;;;;;;7.93;6.83;;;25.60;80.70;;;;;;5076056;28;20481;-79
2021/06/08 10:59:00;;;;;;;10.57;6.27;;;26.10;79.70;;;;;;5077473;28;20548;-79
2021/06/08 11:01:33;;;;;;;7.40;6.67;;;26.40;76.10;;;;;;5076935;28;20459;-80
2021/06/08 11:04:02;;;;;;;8.20;6.60;;;26.70;76.50;;;;;;5076130;28;20394;-79
2021/06/08 11:06:36;;;;;;;5.73;5.23;;;26.10;75.20;;;;;;5075982;28;20454;-79
2021/06/08 11:09:07;;;;;;;7.17;5.97;;;26.00;74.20;;;;;;5076013;28;20424;-79
2021/06/08 11:11:48;;;;;;;6.50;5.90;;;25.70;75.60;;;;;;5076895;28;20430;-80
2021/06/08 11:17:06;;;;;;;6.80;6.20;;;25.60;78.20;;;;;;5076246;28;20865;-80
2021/06/08 11:19:40;;;;;;;7.23;6.63;;;25.60;78.40;;;;;;5074562;28;20414;-79
2021/06/08 11:22:06;;;;;;;6.30;5.63;;;25.30;79.80;;;;;;5074118;28;20428;-80
2021/06/08 11:24:40;;;;;;;8.63;5.33;;;25.20;80.10;;;;;;5073595;28;20410;-79
2021/06/08 11:27:09;;;;;;;6.23;5.63;;;25.10;81.00;;;;;;5075320;28;20204;-79
2021/06/08 11:29:46;;;;;;;6.57;5.93;;;25.00;81.20;;;;;;5076052;28;20502;-79
2021/06/08 11:32:31;;;;;;;7.50;6.80;;;24.90;82.50;;;;;;5075307;28;20428;-79
2021/06/08 11:35:28;;;;;;;7.53;5.40;;;24.80;83.20;;;;;;5076055;28;20402;-81
2021/06/08 11:38:24;;;;;;;6.80;6.10;;;24.60;83.10;;;;;;5058150;28;20521;-79
2021/06/08 11:40:52;;;;;;;9.63;6.73;;;24.60;84.60;;;;;;5075438;28;20905;-79
2021/06/08 11:43:18;;;;;;;6.80;6.20;;;24.70;85.50;;;;;;5077041;28;20509;-79
2021/06/08 11:45:45;;;;;;;9.13;6.80;;;24.60;86.40;;;;;;5076043;28;20445;-80
2021/06/08 11:48:34;;;;;;;9.80;6.67;;;24.80;86.30;;;;;;5075143;28;20714;-80
2021/06/08 11:51:02;;;;;;;9.03;6.40;;;24.80;85.50;;;;;;5073732;28;20579;-78
2021/06/08 11:53:27;;;;;;;6.73;6.10;;;24.90;86.10;;;;;;5072803;28;20525;-79
2021/06/08 11:56:10;;;;;;;6.00;5.50;;;24.80;83.30;;;;;;5074674;28;20403;-80
2021/06/08 11:58:37;;;;;;;7.00;6.30;;;25.00;85.20;;;;;;5074772;28;20496;-79
2021/06/08 12:01:05;;;;;;;7.33;6.43;;;25.10;83.60;;;;;;5074200;28;20402;-81
2021/06/08 12:03:33;;;;;;;7.23;6.53;;;25.40;83.80;;;;;;5057465;28;20583;-79
2021/06/08 12:06:00;;;;;;;7.70;6.87;;;25.60;82.20;;;;;;5073569;28;20951;-79
2021/06/08 12:08:28;;;;;;;7.00;6.10;;;25.80;81.10;;;;;;5075411;28;20480;-79
2021/06/08 12:10:54;;;;;;;7.37;6.30;;;25.80;80.70;;;;;;5054475;28;21006;-79
2021/06/08 12:13:31;;;;;;;6.47;5.27;;;25.70;81.50;;;;;;5074012;28;20426;-80
2021/06/08 12:15:58;;;;;;;6.23;5.60;;;25.60;80.10;;;;;;5073632;28;20449;-80
2021/06/08 12:18:38;;;;;;;5.80;5.30;;;25.50;80.80;;;;;;5075652;28;20406;-79
2021/06/08 12:21:09;;;;;;;13.07;6.20;;;25.10;80.80;;;;;;5076708;28;20505;-80
2021/06/08 12:23:37;;;;;;;7.10;6.00;;;24.90;81.80;;;;;;5074306;28;20495;-79
2021/06/08 12:26:13;;;;;;;6.83;6.13;;;24.80;81.10;;;;;;5056513;28;20917;-79
2021/06/08 12:28:41;;;;;;;6.67;5.37;;;25.00;83.30;;;;;;5076076;28;20428;-79
2021/06/08 12:31:19;;;;;;;8.10;5.90;;;25.10;82.80;;;;;;5077425;28;20406;-79
2021/06/08 12:33:47;;;;;;;7.73;6.43;;;25.30;81.30;;;;;;5080465;28;20441;-80
2021/06/08 12:36:13;;;;;;;5.50;5.00;;;25.30;81.40;;;;;;5075234;28;20487;-80
2021/06/08 12:38:51;;;;;;;6.10;5.50;;;25.10;81.40;;;;;;5077298;28;20902;-81
2021/06/08 12:41:18;;;;;;;7.30;6.23;;;25.20;81.90;;;;;;5076118;28;20413;-80
2021/06/08 12:43:55;;;;;;;6.40;5.80;;;25.30;80.20;;;;;;5074058;28;20418;-79
2021/06/08 12:46:29;;;;;;;8.13;6.00;;;25.20;78.30;;;;;;5074180;28;20414;-80
2021/06/08 12:49:15;;;;;;;7.50;5.60;;;25.30;78.40;;;;;;5075814;28;20418;-80
2021/06/08 12:51:42;;;;;;;5.93;5.37;;;25.50;77.90;;;;;;5073836;28;20425;-80
2021/06/08 12:54:28;;;;;;;6.93;5.83;;;25.50;76.50;;;;;;5072228;28;20957;-78
2021/06/08 12:56:53;;;;;;;6.57;5.90;;;25.40;76.30;;;;;;5058717;28;20583;-78
2021/06/08 12:59:43;;;;;;;10.63;5.53;;;25.60;77.00;;;;;;5073604;28;20933;-78